sensor_id;sensor_type;location;lat;lon;timestamp;temperature;humidity
20973;DHT22;10645;52.370;13.314;2023-02-10T00:03:30;0.30;99.90
20973;DHT22;10645;52.370;13.314;2023-02-10T00:05:56;0.30;99.90
20973;DHT22;10645;52.370;13.314;2023-02-10T00:08:22;0.40;99.90
20973;DHT22;10645;52.370;13.314;2023-02-10T00:10:48;0.40;99.90
20973;DHT22;10645;52.370;13.314;2023-02-10T00:13:14;0.40;99.90
20973;DHT22;10645;52.370;13.314;2023-02-10T00:15:41;0.40;99.90
20973;DHT22;10645;52.370;13.314;2023-02-10T00:18:07;0.40;99.90
20973;DHT22;10645;52.370;13.314;2023-02-10T00:20:33;0.40;99.90
20973;DHT22;10645;52.370;13.314;2023-02-10T00:22:59;0.50;99.90
20973;DHT22;10645;52.370;13.314;2023-02-10T00:25:25;0.50;99.90
20973;DHT22;10645;52.370;13.314;2023-02-10T00:27:51;0.50;99.90
20973;DHT22;10645;52.370;13.314;2023-02-10T00:30:17;0.50;99.90
20973;DHT22;10645;52.370;13.314;2023-02-10T00:32:43;0.50;99.90
20973;DHT22;10645;52.370;13.314;2023-02-10T00:35:11;0.50;99.90
20973;DHT22;10645;52.370;13.314;2023-02-10T00:37:38;0.60;99.90
20973;DHT22;10645;52.370;13.314;2023-02-10T00:40:04;0.50;99.90
20973;DHT22;10645;52.370;13.314;2023-02-10T00:42:30;0.60;99.90
20973;DHT22;10645;52.370;13.314;2023-02-10T00:44:56;0.50;99.90
20973;DHT22;10645;52.370;13.314;2023-02-10T00:47:22;0.50;99.90
20973;DHT22;10645;52.370;13.314;2023-02-10T00:49:53;0.50;99.90
20973;DHT22;10645;52.370;13.314;2023-02-10T00:52:22;0.50;99.90
20973;DHT22;10645;52.370;13.314;2023-02-10T00:54:48;0.60;99.90
20973;DHT22;10645;52.370;13.314;2023-02-10T00:57:15;0.60;99.90
20973;DHT22;10645;52.370;13.314;2023-02-10T00:59:41;0.60;99.90
20973;DHT22;10645;52.370;13.314;2023-02-10T01:02:07;0.50;99.90
20973;DHT22;10645;52.370;13.314;2023-02-10T01:04:34;0.50;99.90
20973;DHT22;10645;52.370;13.314;2023-02-10T01:07:00;0.60;99.90
20973;DHT22;10645;52.370;13.314;2023-02-10T01:09:26;0.60;99.90
20973;DHT22;10645;52.370;13.314;2023-02-10T01:11:52;0.50;99.90
20973;DHT22;10645;52.370;13.314;2023-02-10T01:14:18;0.50;99.90
20973;DHT22;10645;52.370;13.314;2023-02-10T01:16:46;0.60;99.90
20973;DHT22;10645;52.370;13.314;2023-02-10T01:19:13;0.50;99.90
20973;DHT22;10645;52.370;13.314;2023-02-10T01:21:40;0.50;99.90
20973;DHT22;10645;52.370;13.314;2023-02-10T01:24:06;0.50;99.90
20973;DHT22;10645;52.370;13.314;2023-02-10T01:26:33;0.50;99.90
20973;DHT22;10645;52.370;13.314;2023-02-10T01:28:59;0.50;99.90
20973;DHT22;10645;52.370;13.314;2023-02-10T01:31:26;0.50;99.90
20973;DHT22;10645;52.370;13.314;2023-02-10T01:33:54;0.50;99.90
20973;DHT22;10645;52.370;13.314;2023-02-10T01:36:22;0.40;99.90
20973;DHT22;10645;52.370;13.314;2023-02-10T01:38:50;0.30;99.90
20973;DHT22;10645;52.370;13.314;2023-02-10T01:41:18;0.10;99.90
20973;DHT22;10645;52.370;13.314;2023-02-10T01:44:56;-0.10;99.90
20973;DHT22;10645;52.370;13.314;2023-02-10T01:46:53;-0.20;99.90
20973;DHT22;10645;52.370;13.314;2023-02-10T01:49:23;-0.40;99.90
20973;DHT22;10645;52.370;13.314;2023-02-10T01:52:40;-0.40;99.90
20973;DHT22;10645;52.370;13.314;2023-02-10T01:55:05;-0.50;99.90
20973;DHT22;10645;52.370;13.314;2023-02-10T01:57:30;-0.60;99.90
20973;DHT22;10645;52.370;13.314;2023-02-10T01:59:59;-0.60;99.90
20973;DHT22;10645;52.370;13.314;2023-02-10T02:02:27;-0.60;99.90
20973;DHT22;10645;52.370;13.314;2023-02-10T02:04:59;-0.60;99.90
20973;DHT22;10645;52.370;13.314;2023-02-10T02:07:28;-0.60;99.90
20973;DHT22;10645;52.370;13.314;2023-02-10T02:09:59;-0.60;99.90
20973;DHT22;10645;52.370;13.314;2023-02-10T02:12:53;-0.70;99.90
20973;DHT22;10645;52.370;13.314;2023-02-10T02:15:44;-0.70;99.90
20973;DHT22;10645;52.370;13.314;2023-02-10T02:18:40;-0.80;99.90
20973;DHT22;10645;52.370;13.314;2023-02-10T02:21:15;-0.90;99.90
20973;DHT22;10645;52.370;13.314;2023-02-10T02:24:20;-1.00;99.90
20973;DHT22;10645;52.370;13.314;2023-02-10T02:27:14;-1.20;99.90
20973;DHT22;10645;52.370;13.314;2023-02-10T02:29:52;-1.20;99.90
20973;DHT22;10645;52.370;13.314;2023-02-10T02:32:22;-1.30;99.90
20973;DHT22;10645;52.370;13.314;2023-02-10T02:35:02;-1.40;99.90
20973;DHT22;10645;52.370;13.314;2023-02-10T02:37:32;-1.50;99.90
20973;DHT22;10645;52.370;13.314;2023-02-10T02:39:59;-1.50;99.90
20973;DHT22;10645;52.370;13.314;2023-02-10T02:42:29;-1.60;99.90
20973;DHT22;10645;52.370;13.314;2023-02-10T02:45:00;-1.70;99.90
20973;DHT22;10645;52.370;13.314;2023-02-10T02:50:46;-1.70;99.90
20973;DHT22;10645;52.370;13.314;2023-02-10T02:59:17;-1.80;99.90
20973;DHT22;10645;52.370;13.314;2023-02-10T03:01:51;-1.90;99.90
20973;DHT22;10645;52.370;13.314;2023-02-10T03:04:21;-1.90;99.90
20973;DHT22;10645;52.370;13.314;2023-02-10T03:06:47;-2.00;99.90
20973;DHT22;10645;52.370;13.314;2023-02-10T03:09:14;-2.10;99.90
20973;DHT22;10645;52.370;13.314;2023-02-10T03:11:40;-2.10;99.90
20973;DHT22;10645;52.370;13.314;2023-02-10T03:14:06;-2.20;99.90
20973;DHT22;10645;52.370;13.314;2023-02-10T03:16:33;-2.20;99.90
20973;DHT22;10645;52.370;13.314;2023-02-10T03:18:59;-2.20;99.90
20973;DHT22;10645;52.370;13.314;2023-02-10T03:21:25;-2.30;99.90
20973;DHT22;10645;52.370;13.314;2023-02-10T03:23:51;-2.30;99.90
20973;DHT22;10645;52.370;13.314;2023-02-10T03:26:17;-2.30;99.90
20973;DHT22;10645;52.370;13.314;2023-02-10T03:28:44;-2.30;99.90
20973;DHT22;10645;52.370;13.314;2023-02-10T03:31:10;-2.30;99.90
20973;DHT22;10645;52.370;13.314;2023-02-10T03:33:36;-2.40;99.90
20973;DHT22;10645;52.370;13.314;2023-02-10T03:36:03;-2.30;99.90
20973;DHT22;10645;52.370;13.314;2023-02-10T03:38:29;-2.40;99.90
20973;DHT22;10645;52.370;13.314;2023-02-10T03:40:55;-2.40;99.90
20973;DHT22;10645;52.370;13.314;2023-02-10T03:43:22;-2.30;99.90
20973;DHT22;10645;52.370;13.314;2023-02-10T03:45:48;-2.30;99.90
20973;DHT22;10645;52.370;13.314;2023-02-10T03:48:14;-2.20;99.90
20973;DHT22;10645;52.370;13.314;2023-02-10T03:50:42;-2.20;99.90
20973;DHT22;10645;52.370;13.314;2023-02-10T03:53:08;-2.10;99.90
20973;DHT22;10645;52.370;13.314;2023-02-10T03:55:35;-1.90;99.90
20973;DHT22;10645;52.370;13.314;2023-02-10T03:58:01;-1.70;99.90
20973;DHT22;10645;52.370;13.314;2023-02-10T04:00:28;-1.50;99.90
20973;DHT22;10645;52.370;13.314;2023-02-10T04:02:55;-1.30;99.90
20973;DHT22;10645;52.370;13.314;2023-02-10T04:05:21;-1.10;99.90
20973;DHT22;10645;52.370;13.314;2023-02-10T04:07:47;-0.90;99.90
20973;DHT22;10645;52.370;13.314;2023-02-10T04:10:14;-0.80;99.90
20973;DHT22;10645;52.370;13.314;2023-02-10T04:12:40;-0.70;99.90
20973;DHT22;10645;52.370;13.314;2023-02-10T04:15:06;-0.50;99.90
20973;DHT22;10645;52.370;13.314;2023-02-10T04:17:32;-0.40;99.90
20973;DHT22;10645;52.370;13.314;2023-02-10T04:19:58;-0.30;99.90
20973;DHT22;10645;52.370;13.314;2023-02-10T04:22:24;-0.20;99.90
20973;DHT22;10645;52.370;13.314;2023-02-10T04:24:51;0.00;99.90
20973;DHT22;10645;52.370;13.314;2023-02-10T04:27:17;0.10;99.90
20973;DHT22;10645;52.370;13.314;2023-02-10T04:29:43;0.20;99.90
20973;DHT22;10645;52.370;13.314;2023-02-10T04:32:09;0.20;99.90
20973;DHT22;10645;52.370;13.314;2023-02-10T04:34:35;0.20;99.90
20973;DHT22;10645;52.370;13.314;2023-02-10T04:37:01;0.30;99.90
20973;DHT22;10645;52.370;13.314;2023-02-10T04:39:27;0.30;99.90
20973;DHT22;10645;52.370;13.314;2023-02-10T04:41:53;0.30;99.90
20973;DHT22;10645;52.370;13.314;2023-02-10T04:44:19;0.30;99.90
20973;DHT22;10645;52.370;13.314;2023-02-10T04:46:45;0.40;99.90
20973;DHT22;10645;52.370;13.314;2023-02-10T04:49:11;0.40;99.90
20973;DHT22;10645;52.370;13.314;2023-02-10T04:51:37;0.50;99.90
20973;DHT22;10645;52.370;13.314;2023-02-10T04:54:04;0.50;99.90
20973;DHT22;10645;52.370;13.314;2023-02-10T04:56:30;0.50;99.90
20973;DHT22;10645;52.370;13.314;2023-02-10T04:58:56;0.60;99.90
20973;DHT22;10645;52.370;13.314;2023-02-10T05:01:22;0.60;99.90
20973;DHT22;10645;52.370;13.314;2023-02-10T05:03:48;0.60;99.90
20973;DHT22;10645;52.370;13.314;2023-02-10T05:06:15;0.60;99.90
20973;DHT22;10645;52.370;13.314;2023-02-10T05:08:42;0.60;99.90
20973;DHT22;10645;52.370;13.314;2023-02-10T05:11:09;0.60;99.90
20973;DHT22;10645;52.370;13.314;2023-02-10T05:13:35;0.60;99.90
20973;DHT22;10645;52.370;13.314;2023-02-10T05:16:01;0.60;99.90
20973;DHT22;10645;52.370;13.314;2023-02-10T05:18:32;0.50;99.90
20973;DHT22;10645;52.370;13.314;2023-02-10T05:20:59;0.50;99.90
20973;DHT22;10645;52.370;13.314;2023-02-10T05:23:26;0.40;99.90
20973;DHT22;10645;52.370;13.314;2023-02-10T05:25:52;0.40;99.90
20973;DHT22;10645;52.370;13.314;2023-02-10T05:28:19;0.40;99.90
20973;DHT22;10645;52.370;13.314;2023-02-10T05:30:46;0.40;99.90
20973;DHT22;10645;52.370;13.314;2023-02-10T05:33:12;0.50;99.90
20973;DHT22;10645;52.370;13.314;2023-02-10T05:35:38;0.50;99.90
20973;DHT22;10645;52.370;13.314;2023-02-10T05:38:04;0.50;99.90
20973;DHT22;10645;52.370;13.314;2023-02-10T05:40:31;0.40;99.90
20973;DHT22;10645;52.370;13.314;2023-02-10T05:42:57;0.40;99.90
20973;DHT22;10645;52.370;13.314;2023-02-10T05:45:24;0.40;99.90
20973;DHT22;10645;52.370;13.314;2023-02-10T05:47:50;0.30;99.90
20973;DHT22;10645;52.370;13.314;2023-02-10T05:50:17;0.40;99.90
20973;DHT22;10645;52.370;13.314;2023-02-10T05:52:44;0.30;99.90
20973;DHT22;10645;52.370;13.314;2023-02-10T05:55:10;0.30;99.90
20973;DHT22;10645;52.370;13.314;2023-02-10T05:57:36;0.30;99.90
20973;DHT22;10645;52.370;13.314;2023-02-10T06:00:07;0.30;99.90
20973;DHT22;10645;52.370;13.314;2023-02-10T06:02:39;0.30;99.90
20973;DHT22;10645;52.370;13.314;2023-02-10T06:05:05;0.30;99.90
20973;DHT22;10645;52.370;13.314;2023-02-10T06:07:31;0.30;99.90
20973;DHT22;10645;52.370;13.314;2023-02-10T06:09:57;0.30;99.90
20973;DHT22;10645;52.370;13.314;2023-02-10T06:12:23;0.30;99.90
20973;DHT22;10645;52.370;13.314;2023-02-10T06:14:50;0.20;99.90
20973;DHT22;10645;52.370;13.314;2023-02-10T06:17:16;0.20;99.90
20973;DHT22;10645;52.370;13.314;2023-02-10T06:19:42;0.10;99.90
20973;DHT22;10645;52.370;13.314;2023-02-10T06:22:09;0.10;99.90
20973;DHT22;10645;52.370;13.314;2023-02-10T06:24:35;0.10;99.90
20973;DHT22;10645;52.370;13.314;2023-02-10T06:27:01;0.10;99.90
20973;DHT22;10645;52.370;13.314;2023-02-10T06:29:27;0.00;99.90
20973;DHT22;10645;52.370;13.314;2023-02-10T06:31:53;0.00;99.90
20973;DHT22;10645;52.370;13.314;2023-02-10T06:34:20;-0.10;99.90
20973;DHT22;10645;52.370;13.314;2023-02-10T06:36:46;-0.10;99.90
20973;DHT22;10645;52.370;13.314;2023-02-10T06:39:12;-0.10;99.90
20973;DHT22;10645;52.370;13.314;2023-02-10T06:41:38;-0.10;99.90
20973;DHT22;10645;52.370;13.314;2023-02-10T06:44:04;-0.20;99.90
20973;DHT22;10645;52.370;13.314;2023-02-10T06:46:30;-0.20;99.90
20973;DHT22;10645;52.370;13.314;2023-02-10T06:48:56;-0.20;99.90
20973;DHT22;10645;52.370;13.314;2023-02-10T06:51:22;-0.20;99.90
20973;DHT22;10645;52.370;13.314;2023-02-10T06:53:48;-0.30;99.90
20973;DHT22;10645;52.370;13.314;2023-02-10T06:56:14;-0.30;99.90
20973;DHT22;10645;52.370;13.314;2023-02-10T06:58:40;-0.20;99.90
20973;DHT22;10645;52.370;13.314;2023-02-10T07:01:11;-0.20;99.90
20973;DHT22;10645;52.370;13.314;2023-02-10T07:03:38;-0.20;99.90
20973;DHT22;10645;52.370;13.314;2023-02-10T07:06:04;-0.20;99.90
20973;DHT22;10645;52.370;13.314;2023-02-10T07:08:31;-0.30;99.90
20973;DHT22;10645;52.370;13.314;2023-02-10T07:10:57;-0.30;99.90
20973;DHT22;10645;52.370;13.314;2023-02-10T07:13:23;-0.20;99.90
20973;DHT22;10645;52.370;13.314;2023-02-10T07:15:49;-0.20;99.90
20973;DHT22;10645;52.370;13.314;2023-02-10T07:18:16;-0.20;99.90
20973;DHT22;10645;52.370;13.314;2023-02-10T07:20:42;-0.10;99.90
20973;DHT22;10645;52.370;13.314;2023-02-10T07:23:08;0.10;99.90
20973;DHT22;10645;52.370;13.314;2023-02-10T07:25:34;0.20;99.90
20973;DHT22;10645;52.370;13.314;2023-02-10T07:28:00;0.30;99.90
20973;DHT22;10645;52.370;13.314;2023-02-10T07:30:26;0.40;99.90
20973;DHT22;10645;52.370;13.314;2023-02-10T07:32:52;0.50;99.90
20973;DHT22;10645;52.370;13.314;2023-02-10T07:35:18;0.60;99.90
20973;DHT22;10645;52.370;13.314;2023-02-10T07:37:44;0.70;99.90
20973;DHT22;10645;52.370;13.314;2023-02-10T07:40:11;0.80;99.90
20973;DHT22;10645;52.370;13.314;2023-02-10T07:42:37;0.90;99.90
20973;DHT22;10645;52.370;13.314;2023-02-10T07:45:32;1.00;99.90
20973;DHT22;10645;52.370;13.314;2023-02-10T07:47:58;1.10;99.90
20973;DHT22;10645;52.370;13.314;2023-02-10T07:50:25;1.20;99.90
20973;DHT22;10645;52.370;13.314;2023-02-10T07:52:51;1.40;99.90
20973;DHT22;10645;52.370;13.314;2023-02-10T07:55:18;1.40;99.90
20973;DHT22;10645;52.370;13.314;2023-02-10T07:57:45;1.60;99.90
20973;DHT22;10645;52.370;13.314;2023-02-10T08:00:11;1.60;99.90
20973;DHT22;10645;52.370;13.314;2023-02-10T08:02:41;1.70;99.90
20973;DHT22;10645;52.370;13.314;2023-02-10T08:05:07;1.80;99.90
20973;DHT22;10645;52.370;13.314;2023-02-10T08:07:35;1.80;99.90
20973;DHT22;10645;52.370;13.314;2023-02-10T08:10:01;1.90;99.90
20973;DHT22;10645;52.370;13.314;2023-02-10T08:12:27;1.90;99.90
20973;DHT22;10645;52.370;13.314;2023-02-10T08:14:53;2.00;99.90
20973;DHT22;10645;52.370;13.314;2023-02-10T08:17:19;2.00;99.90
20973;DHT22;10645;52.370;13.314;2023-02-10T08:19:45;2.00;99.90
20973;DHT22;10645;52.370;13.314;2023-02-10T08:22:11;2.00;99.90
20973;DHT22;10645;52.370;13.314;2023-02-10T08:24:37;2.10;99.90
20973;DHT22;10645;52.370;13.314;2023-02-10T08:27:04;2.20;99.90
20973;DHT22;10645;52.370;13.314;2023-02-10T08:29:30;2.30;99.90
20973;DHT22;10645;52.370;13.314;2023-02-10T08:31:56;2.40;99.90
20973;DHT22;10645;52.370;13.314;2023-02-10T08:34:23;2.50;99.90
20973;DHT22;10645;52.370;13.314;2023-02-10T08:36:50;2.60;99.90
20973;DHT22;10645;52.370;13.314;2023-02-10T08:39:16;2.60;99.90
20973;DHT22;10645;52.370;13.314;2023-02-10T08:41:43;2.70;99.90
20973;DHT22;10645;52.370;13.314;2023-02-10T08:44:11;2.70;99.90
20973;DHT22;10645;52.370;13.314;2023-02-10T08:46:38;2.80;99.90
20973;DHT22;10645;52.370;13.314;2023-02-10T08:49:04;2.80;99.90
20973;DHT22;10645;52.370;13.314;2023-02-10T08:51:30;2.90;99.90
20973;DHT22;10645;52.370;13.314;2023-02-10T08:54:01;2.90;99.90
20973;DHT22;10645;52.370;13.314;2023-02-10T08:56:29;3.00;99.90
20973;DHT22;10645;52.370;13.314;2023-02-10T08:58:55;3.00;99.90
20973;DHT22;10645;52.370;13.314;2023-02-10T09:01:24;3.00;99.90
20973;DHT22;10645;52.370;13.314;2023-02-10T09:03:54;3.10;99.90
20973;DHT22;10645;52.370;13.314;2023-02-10T09:06:24;3.20;99.90
20973;DHT22;10645;52.370;13.314;2023-02-10T09:08:51;3.30;99.90
20973;DHT22;10645;52.370;13.314;2023-02-10T09:11:18;3.40;99.90
20973;DHT22;10645;52.370;13.314;2023-02-10T09:13:45;3.60;99.90
20973;DHT22;10645;52.370;13.314;2023-02-10T09:16:11;3.80;99.90
20973;DHT22;10645;52.370;13.314;2023-02-10T09:18:37;3.90;99.90
20973;DHT22;10645;52.370;13.314;2023-02-10T09:21:03;4.10;99.90
20973;DHT22;10645;52.370;13.314;2023-02-10T09:23:29;4.20;99.90
20973;DHT22;10645;52.370;13.314;2023-02-10T09:25:57;4.30;99.90
20973;DHT22;10645;52.370;13.314;2023-02-10T09:28:24;4.40;99.90
20973;DHT22;10645;52.370;13.314;2023-02-10T09:30:50;4.40;99.90
20973;DHT22;10645;52.370;13.314;2023-02-10T09:33:17;4.40;99.90
20973;DHT22;10645;52.370;13.314;2023-02-10T09:35:44;4.50;99.90
20973;DHT22;10645;52.370;13.314;2023-02-10T09:38:11;4.60;99.90
20973;DHT22;10645;52.370;13.314;2023-02-10T09:41:08;4.80;99.90
20973;DHT22;10645;52.370;13.314;2023-02-10T09:44:07;4.90;99.90
20973;DHT22;10645;52.370;13.314;2023-02-10T09:47:03;4.80;99.90
20973;DHT22;10645;52.370;13.314;2023-02-10T09:49:43;4.80;99.90
20973;DHT22;10645;52.370;13.314;2023-02-10T09:55:33;4.60;99.90
20973;DHT22;10645;52.370;13.314;2023-02-10T09:58:10;4.70;99.90
20973;DHT22;10645;52.370;13.314;2023-02-10T10:00:42;4.70;99.90
20973;DHT22;10645;52.370;13.314;2023-02-10T10:03:17;4.70;99.90
20973;DHT22;10645;52.370;13.314;2023-02-10T10:06:04;4.70;99.90
20973;DHT22;10645;52.370;13.314;2023-02-10T10:13:51;5.00;99.90
20973;DHT22;10645;52.370;13.314;2023-02-10T10:16:26;5.10;99.90
20973;DHT22;10645;52.370;13.314;2023-02-10T10:21:57;5.20;99.90
20973;DHT22;10645;52.370;13.314;2023-02-10T10:30:25;5.20;99.90
20973;DHT22;10645;52.370;13.314;2023-02-10T10:32:59;5.30;99.90
20973;DHT22;10645;52.370;13.314;2023-02-10T10:35:32;5.30;99.90
20973;DHT22;10645;52.370;13.314;2023-02-10T10:38:21;5.30;99.90
20973;DHT22;10645;52.370;13.314;2023-02-10T10:40:51;5.30;99.90
20973;DHT22;10645;52.370;13.314;2023-02-10T10:43:23;5.30;99.90
20973;DHT22;10645;52.370;13.314;2023-02-10T10:45:55;5.30;99.90
20973;DHT22;10645;52.370;13.314;2023-02-10T10:48:25;5.40;99.90
20973;DHT22;10645;52.370;13.314;2023-02-10T10:50:58;5.40;99.90
20973;DHT22;10645;52.370;13.314;2023-02-10T10:56:02;5.50;99.90
20973;DHT22;10645;52.370;13.314;2023-02-10T10:58:35;5.60;99.90
20973;DHT22;10645;52.370;13.314;2023-02-10T11:01:02;5.50;99.90
20973;DHT22;10645;52.370;13.314;2023-02-10T11:03:29;5.60;99.90
20973;DHT22;10645;52.370;13.314;2023-02-10T11:06:08;5.60;99.90
20973;DHT22;10645;52.370;13.314;2023-02-10T11:08:43;5.60;99.90
20973;DHT22;10645;52.370;13.314;2023-02-10T11:11:12;5.60;99.90
20973;DHT22;10645;52.370;13.314;2023-02-10T11:13:47;5.60;99.90
20973;DHT22;10645;52.370;13.314;2023-02-10T11:16:15;5.60;99.90
20973;DHT22;10645;52.370;13.314;2023-02-10T11:18:58;5.80;99.90
20973;DHT22;10645;52.370;13.314;2023-02-10T11:21:37;5.90;99.90
20973;DHT22;10645;52.370;13.314;2023-02-10T11:24:21;6.00;99.90
20973;DHT22;10645;52.370;13.314;2023-02-10T11:27:06;5.80;99.90
20973;DHT22;10645;52.370;13.314;2023-02-10T11:29:46;5.90;99.90
20973;DHT22;10645;52.370;13.314;2023-02-10T11:32:34;6.00;99.90
20973;DHT22;10645;52.370;13.314;2023-02-10T11:35:04;6.00;99.90
20973;DHT22;10645;52.370;13.314;2023-02-10T11:37:37;6.10;99.90
20973;DHT22;10645;52.370;13.314;2023-02-10T11:40:20;6.10;99.90
20973;DHT22;10645;52.370;13.314;2023-02-10T11:42:48;6.10;99.90
20973;DHT22;10645;52.370;13.314;2023-02-10T11:45:19;6.00;99.90
20973;DHT22;10645;52.370;13.314;2023-02-10T11:47:45;6.00;99.90
20973;DHT22;10645;52.370;13.314;2023-02-10T11:50:23;5.90;99.90
20973;DHT22;10645;52.370;13.314;2023-02-10T11:52:49;6.00;99.90
20973;DHT22;10645;52.370;13.314;2023-02-10T11:55:16;6.00;99.90
20973;DHT22;10645;52.370;13.314;2023-02-10T11:57:58;6.00;99.90
20973;DHT22;10645;52.370;13.314;2023-02-10T12:00:52;6.20;99.90
20973;DHT22;10645;52.370;13.314;2023-02-10T12:03:41;6.30;99.90
20973;DHT22;10645;52.370;13.314;2023-02-10T12:06:33;6.30;99.90
20973;DHT22;10645;52.370;13.314;2023-02-10T12:09:25;6.30;99.90
20973;DHT22;10645;52.370;13.314;2023-02-10T12:12:01;6.40;99.90
20973;DHT22;10645;52.370;13.314;2023-02-10T12:14:57;6.50;99.90
20973;DHT22;10645;52.370;13.314;2023-02-10T12:17:47;6.60;99.90
20973;DHT22;10645;52.370;13.314;2023-02-10T12:20:29;6.70;99.90
20973;DHT22;10645;52.370;13.314;2023-02-10T12:23:12;6.70;99.90
20973;DHT22;10645;52.370;13.314;2023-02-10T12:28:55;6.80;99.90
20973;DHT22;10645;52.370;13.314;2023-02-10T12:31:28;6.90;99.90
20973;DHT22;10645;52.370;13.314;2023-02-10T12:37:02;7.00;99.90
20973;DHT22;10645;52.370;13.314;2023-02-10T12:42:36;7.00;99.90
20973;DHT22;10645;52.370;13.314;2023-02-10T12:45:20;7.00;99.90
20973;DHT22;10645;52.370;13.314;2023-02-10T12:56:52;6.80;99.90
20973;DHT22;10645;52.370;13.314;2023-02-10T12:59:24;6.70;99.90
20973;DHT22;10645;52.370;13.314;2023-02-10T13:01:58;6.80;99.90
20973;DHT22;10645;52.370;13.314;2023-02-10T13:04:39;6.70;99.90
20973;DHT22;10645;52.370;13.314;2023-02-10T13:07:20;6.70;99.90
20973;DHT22;10645;52.370;13.314;2023-02-10T13:12:36;6.70;99.90
20973;DHT22;10645;52.370;13.314;2023-02-10T13:15:27;6.80;99.90
20973;DHT22;10645;52.370;13.314;2023-02-10T13:17:54;6.70;99.90
20973;DHT22;10645;52.370;13.314;2023-02-10T13:20:41;6.70;99.90
20973;DHT22;10645;52.370;13.314;2023-02-10T13:29:45;6.70;99.90
20973;DHT22;10645;52.370;13.314;2023-02-10T13:32:27;6.60;99.90
20973;DHT22;10645;52.370;13.314;2023-02-10T13:35:00;6.60;99.90
20973;DHT22;10645;52.370;13.314;2023-02-10T13:40:01;6.60;99.90
20973;DHT22;10645;52.370;13.314;2023-02-10T13:42:37;6.50;99.90
20973;DHT22;10645;52.370;13.314;2023-02-10T13:45:06;6.50;99.90
20973;DHT22;10645;52.370;13.314;2023-02-10T13:52:54;6.40;99.90
20973;DHT22;10645;52.370;13.314;2023-02-10T13:57:56;6.40;99.90
20973;DHT22;10645;52.370;13.314;2023-02-10T14:00:30;6.40;99.90
20973;DHT22;10645;52.370;13.314;2023-02-10T14:03:17;6.40;99.90
20973;DHT22;10645;52.370;13.314;2023-02-10T14:06:01;6.40;99.90
20973;DHT22;10645;52.370;13.314;2023-02-10T14:08:42;6.30;99.90
20973;DHT22;10645;52.370;13.314;2023-02-10T14:14:00;6.30;99.90
20973;DHT22;10645;52.370;13.314;2023-02-10T14:16:38;6.30;99.90
20973;DHT22;10645;52.370;13.314;2023-02-10T14:19:35;6.30;99.90
20973;DHT22;10645;52.370;13.314;2023-02-10T14:22:03;6.30;99.90
20973;DHT22;10645;52.370;13.314;2023-02-10T14:24:34;6.40;99.90
20973;DHT22;10645;52.370;13.314;2023-02-10T14:27:03;6.40;99.90
20973;DHT22;10645;52.370;13.314;2023-02-10T14:29:33;6.40;99.90
20973;DHT22;10645;52.370;13.314;2023-02-10T14:32:02;6.40;99.90
20973;DHT22;10645;52.370;13.314;2023-02-10T14:34:31;6.40;99.90
20973;DHT22;10645;52.370;13.314;2023-02-10T14:37:18;6.40;99.90
20973;DHT22;10645;52.370;13.314;2023-02-10T14:39:58;6.30;99.90
20973;DHT22;10645;52.370;13.314;2023-02-10T14:42:30;6.20;99.90
20973;DHT22;10645;52.370;13.314;2023-02-10T14:44:58;6.10;99.90
20973;DHT22;10645;52.370;13.314;2023-02-10T14:47:33;6.00;99.90
20973;DHT22;10645;52.370;13.314;2023-02-10T14:50:00;5.90;99.90
20973;DHT22;10645;52.370;13.314;2023-02-10T14:52:29;5.80;99.90
20973;DHT22;10645;52.370;13.314;2023-02-10T14:54:55;5.60;99.90
20973;DHT22;10645;52.370;13.314;2023-02-10T14:57:23;5.60;99.90
20973;DHT22;10645;52.370;13.314;2023-02-10T15:02:23;5.50;99.90
20973;DHT22;10645;52.370;13.314;2023-02-10T15:04:51;5.50;99.90
20973;DHT22;10645;52.370;13.314;2023-02-10T15:07:31;5.50;99.90
20973;DHT22;10645;52.370;13.314;2023-02-10T15:10:06;5.40;99.90
20973;DHT22;10645;52.370;13.314;2023-02-10T15:12:35;5.40;99.90
20973;DHT22;10645;52.370;13.314;2023-02-10T15:15:19;5.30;99.90
20973;DHT22;10645;52.370;13.314;2023-02-10T15:17:52;5.20;99.90
20973;DHT22;10645;52.370;13.314;2023-02-10T15:20:23;5.10;99.90
20973;DHT22;10645;52.370;13.314;2023-02-10T15:22:51;5.00;99.90
20973;DHT22;10645;52.370;13.314;2023-02-10T15:28:12;4.90;99.90
20973;DHT22;10645;52.370;13.314;2023-02-10T15:31:18;4.80;99.90
20973;DHT22;10645;52.370;13.314;2023-02-10T15:33:53;4.70;99.90
20973;DHT22;10645;52.370;13.314;2023-02-10T15:38:57;4.50;99.90
20973;DHT22;10645;52.370;13.314;2023-02-10T15:41:36;4.50;99.90
20973;DHT22;10645;52.370;13.314;2023-02-10T15:46:46;4.40;99.90
20973;DHT22;10645;52.370;13.314;2023-02-10T15:49:15;4.30;99.90
20973;DHT22;10645;52.370;13.314;2023-02-10T15:51:50;4.30;99.90
20973;DHT22;10645;52.370;13.314;2023-02-10T15:54:19;4.20;99.90
20973;DHT22;10645;52.370;13.314;2023-02-10T15:56:57;4.10;99.90
20973;DHT22;10645;52.370;13.314;2023-02-10T15:59:23;4.00;99.90
20973;DHT22;10645;52.370;13.314;2023-02-10T16:01:58;4.00;99.90
20973;DHT22;10645;52.370;13.314;2023-02-10T16:04:24;4.00;99.90
20973;DHT22;10645;52.370;13.314;2023-02-10T16:06:50;3.90;99.90
20973;DHT22;10645;52.370;13.314;2023-02-10T16:09:17;3.90;99.90
20973;DHT22;10645;52.370;13.314;2023-02-10T16:11:43;3.90;99.90
20973;DHT22;10645;52.370;13.314;2023-02-10T16:14:09;3.90;99.90
20973;DHT22;10645;52.370;13.314;2023-02-10T16:16:45;3.80;99.90
20973;DHT22;10645;52.370;13.314;2023-02-10T16:19:13;3.80;99.90
20973;DHT22;10645;52.370;13.314;2023-02-10T16:21:41;3.70;99.90
20973;DHT22;10645;52.370;13.314;2023-02-10T16:24:14;3.60;99.90
20973;DHT22;10645;52.370;13.314;2023-02-10T16:26:41;3.60;99.90
20973;DHT22;10645;52.370;13.314;2023-02-10T16:29:14;3.60;99.90
20973;DHT22;10645;52.370;13.314;2023-02-10T16:31:41;3.50;99.90
20973;DHT22;10645;52.370;13.314;2023-02-10T16:34:08;3.50;99.90
20973;DHT22;10645;52.370;13.314;2023-02-10T16:36:34;3.40;99.90
20973;DHT22;10645;52.370;13.314;2023-02-10T16:39:01;3.30;99.90
20973;DHT22;10645;52.370;13.314;2023-02-10T16:41:27;3.30;99.90
20973;DHT22;10645;52.370;13.314;2023-02-10T16:43:53;3.20;99.90
20973;DHT22;10645;52.370;13.314;2023-02-10T16:46:19;3.10;99.90
20973;DHT22;10645;52.370;13.314;2023-02-10T16:48:46;3.10;99.90
20973;DHT22;10645;52.370;13.314;2023-02-10T16:51:12;3.00;99.90
20973;DHT22;10645;52.370;13.314;2023-02-10T16:53:39;3.00;99.90
20973;DHT22;10645;52.370;13.314;2023-02-10T16:56:13;2.90;99.90
20973;DHT22;10645;52.370;13.314;2023-02-10T16:58:40;2.80;99.90
20973;DHT22;10645;52.370;13.314;2023-02-10T17:01:06;2.80;99.90
20973;DHT22;10645;52.370;13.314;2023-02-10T17:03:32;2.80;99.90
20973;DHT22;10645;52.370;13.314;2023-02-10T17:05:58;2.80;99.90
20973;DHT22;10645;52.370;13.314;2023-02-10T17:08:25;2.80;99.90
20973;DHT22;10645;52.370;13.314;2023-02-10T17:10:51;2.80;99.90